TIY weather

Tidjikja Airport
Tidjikja, Tagant Region, Mauritania

Public forecast

Using degrees Celsius for public forecast. Weather courtesy of forecast.io.

METAR (pilot weather report)

Report is more than 6 hours old.

Closest report is Atar International Airport, 148.1 nm (274.2 km) NW. Retrieved 2019/09/17 09:00 UTC (9 hours ago):

GQPA 170900Z 00000KT 4000 BR NSC 38/15 Q1013

TAF (pilot weather forecast)

Closest forecast is Nouakchott–Oumtounsy International Airport, 259.4 nm (480.4 km) W. Retrieved 2019/09/17 12:00 UTC (6 hours ago):

TAF GQNO 171100Z 1712/1818 26012KT 8000 NSC PROB40 TEMPO 1723/1809 BKN008